Home > Products > Valid Products > TAF

000
FTUS45 KVEF 240500
TAFVGT
TAF
KVGT 240520Z 2406/2506 VRB05KT P6SM BKN250
     FM241800 13007KT P6SM SCT200
     FM242100 18010KT P6SM SCT200=



000
FTUS45 KVEF 240500
TAFDAG
TAF
KDAG 240520Z 2406/2506 27009KT P6SM BKN200
     FM241800 30008KT P6SM SCT200
     FM242300 25012KT P6SM SCT200
     FM250300 26012G20KT P6SM SCT200=



000
FTUS45 KVEF 240500
TAFEED
TAF
KEED 240520Z 2406/2506 32007KT P6SM BKN250
     FM241500 VRB05KT P6SM SCT200
     FM242100 20010KT P6SM SCT200=



000
FTUS45 KVEF 240500
TAFBIH
TAF
KBIH 240520Z 2406/2506 15010KT P6SM BKN200
     FM241000 34006KT P6SM BKN200
     FM241400 VRB05KT P6SM SCT150
     FM241900 18010KT P6SM BKN120
     FM250300 34007KT P6SM SCT080 BKN120=



000
FTUS45 KVEF 240500
TAFLAS
TAF
KLAS 240520Z 2406/2506 VRB05KT P6SM BKN250
     FM241900 09006KT P6SM SCT250
     FM242200 17010KT P6SM SCT250
     FM250200 21010KT P6SM FEW250=



000
FTUS45 KVEF 240300 AAB
TAFLAS
TAF AMD
KLAS 240347Z 2404/2424 09007KT P6SM BKN250
     FM240500 21007KT P6SM BKN250
     FM241300 VRB05KT P6SM SCT200
     FM241900 08006KT P6SM SCT200
     FM242200 19010KT P6SM SCT200=



000
FTUS45 KVEF 240200 AAA
TAFLAS
TAF AMD
KLAS 240249Z 2403/2424 VRB06KT P6SM SCT250
     FM240400 21007KT P6SM BKN250
     FM241300 VRB05KT P6SM SCT200
     FM241900 08006KT P6SM SCT200
     FM242200 19010KT P6SM SCT200=



000
FTUS45 KVEF 232300
TAFEED
TAF
KEED 232320Z 2400/2424 04012KT P6SM SCT250
     FM240300 32007KT P6SM BKN250
     FM241500 VRB05KT P6SM SCT200
     FM242100 20010KT P6SM SCT200=



000
FTUS45 KVEF 232300
TAFLAS
TAF
KLAS 232320Z 2400/2424 VRB06KT P6SM SCT250
     FM240400 21007KT P6SM BKN250
     FM241300 VRB05KT P6SM SCT200
     FM241900 08006KT P6SM SCT200
     FM242200 19010KT P6SM SCT200=



000
FTUS45 KVEF 232300
TAFDAG
TAF
KDAG 232320Z 2400/2424 VRB06KT P6SM BKN250
     FM240300 27009KT P6SM BKN200
     FM241800 30008KT P6SM SCT200=



000
FTUS45 KVEF 232300
TAFBIH
TAF
KBIH 232320Z 2400/2424 15008KT P6SM BKN250
     FM240600 33006KT P6SM BKN200
     FM241400 VRB05KT P6SM SCT150
     FM241900 18010KT P6SM BKN120=



000
FTUS45 KVEF 232300
TAFVGT
TAF
KVGT 232320Z 2400/2424 04008KT P6SM SCT250
     FM240400 33006KT P6SM BKN250
     FM241400 VRB05KT P6SM SCT200
     FM241800 13007KT P6SM SCT200
     FM242100 18010KT P6SM SCT200=



000
FTUS45 KVEF 232000 AAA
TAFLAS
TAF AMD
KLAS 232045Z 2321/2418 03009KT P6SM SCT250
     FM240400 21007KT P6SM SCT250
     FM241300 VRB05KT P6SM SCT200=



000
FTUS45 KVEF 231700
TAFVGT
TAF
KVGT 231720Z 2318/2418 34015G25KT P6SM FEW250
     FM232100 04008KT P6SM SCT250
     FM240400 33006KT P6SM SCT250
     FM241400 VRB05KT P6SM SCT200=



000
FTUS45 KVEF 231700
TAFBIH
TAF
KBIH 231720Z 2318/2418 36012KT P6SM FEW250
     FM232000 05007KT P6SM SCT250
     FM232200 14008KT P6SM BKN250
     FM240600 33006KT P6SM BKN250
     FM241400 VRB05KT P6SM BKN150=



000
FTUS45 KVEF 231700
TAFDAG
TAF
KDAG 231720Z 2318/2418 31010KT P6SM SCT250
     FM240300 27009KT P6SM SCT250=



000
FTUS45 KVEF 231700
TAFEED
TAF
KEED 231720Z 2318/2418 01020G30KT P6SM SCT250
     FM240000 01012KT P6SM SCT250
     FM240400 31006KT P6SM SCT250=



000
FTUS45 KVEF 231700
TAFLAS
TAF
KLAS 231720Z 2318/2418 35010G20KT P6SM FEW250
     FM232000 03009KT P6SM SCT250
     FM240400 21007KT P6SM SCT250
     FM241300 VRB05KT P6SM SCT200=



000
FTUS45 KVEF 231400 AAA
TAFLAS
TAF AMD
KLAS 231436Z 2315/2412 33014G22KT P6SM SCT250
     FM231800 04008KT P6SM SCT250
     FM240400 21007KT P6SM SCT250=



000
FTUS45 KVEF 231300 AAA
TAFDAG
TAF AMD
KDAG 231343Z 2314/2412 31010KT P6SM SCT250
     FM240400 27007KT P6SM SCT250=



000
FTUS45 KVEF 231100
TAFDAG
TAF
KDAG 231128Z 2312/2412 25015G25KT P6SM SCT250
     FM231900 32010KT P6SM SCT250
     FM240400 27007KT P6SM SCT250=



000
FTUS45 KVEF 231100
TAFBIH
TAF
KBIH 231128Z 2312/2412 35012G20KT P6SM SCT120 SCT250
     FM232100 12009KT P6SM BKN250
     FM240600 33006KT P6SM SCT250=



000
FTUS45 KVEF 231100
TAFEED
TAF
KEED 231128Z 2312/2412 33012KT P6SM SKC
     FM231700 01020G30KT P6SM SCT250
     FM240000 01012KT P6SM SCT250
     FM240500 31006KT P6SM SCT250=



000
FTUS45 KVEF 231100
TAFLAS
TAF
KLAS 231128Z 2312/2412 33014G22KT P6SM BKN250
     FM231500 36009KT P6SM SCT250
     FM231900 04008KT P6SM SCT250
     FM240400 21007KT P6SM SCT250=



000
FTUS45 KVEF 231100
TAFVGT
TAF
KVGT 231128Z 2312/2412 33015G25KT P6SM BKN250
     FM231800 36008KT P6SM SCT250
     FM232100 05007KT P6SM SCT250
     FM240400 34005KT P6SM SCT250=



000
FTUS45 KVEF 230800 AAA
TAFLAS
TAF AMD
KLAS 230848Z 2309/2406 33012G18KT P6SM BKN250
     FM231900 04008KT P6SM SCT250
     FM240400 21007KT P6SM SCT250=



000
FTUS45 KVEF 230800 AAA
TAFBIH
TAF AMD
KBIH 230816Z 2308/2406 35010KT P6SM BKN250
     FM232100 12009KT P6SM BKN250=



000
FTUS45 KVEF 230500
TAFBIH
TAF
KBIH 230535Z 2306/2406 36014G22KT P6SM SCT250
     FM231200 35010KT P6SM SCT250
     FM232100 12009KT P6SM BKN250=



000
FTUS45 KVEF 230500
TAFVGT
TAF
KVGT 230535Z 2306/2406 33015G25KT P6SM SKC
     FM231900 36008KT P6SM SCT250
     FM240200 VRB05KT P6SM SCT250=



000
FTUS45 KVEF 230500
TAFLAS
TAF
KLAS 230535Z 2306/2406 32014G22KT P6SM SKC
     FM230800 34010G16KT P6SM SKC
     FM231900 04008KT P6SM SCT250
     FM240400 21007KT P6SM SCT250=



000
FTUS45 KVEF 230500
TAFEED
TAF
KEED 230535Z 2306/2406 28007KT P6SM SKC
     FM230900 31012G20KT P6SM SKC
     FM231700 01022G30KT P6SM SCT250
     FM240000 35010KT P6SM SCT250=



000
FTUS45 KVEF 230500
TAFDAG
TAF
KDAG 230535Z 2306/2406 26022G32KT P6SM SCT250
     FM230800 27014G24KT P6SM SCT250
     FM231800 32010KT P6SM SCT250
     FM240400 27007KT P6SM SCT250=



000
FTUS45 KVEF 230200 AAA
TAFLAS
TAF AMD
KLAS 230209Z 2302/2324 23016G26KT P6SM SCT250
     FM230600 32012KT P6SM SCT250
      TEMPO 2306/2308 32012G22KT
     FM231500 36010KT P6SM SCT150
     FM231800 04008KT P6SM SCT250=



000
FTUS45 KVEF 230200 AAA
TAFVGT
TAF AMD
KVGT 230209Z 2302/2324 26018G28KT P6SM SCT250
     FM230500 31015G25KT P6SM SCT250
     FM231500 34015G25KT P6SM SCT150
     FM231900 36008KT P6SM SCT250=



000
FTUS45 KVEF 230000 AAA
TAFBIH
TAF AMD
KBIH 230001Z 2300/2324 36026G36KT P6SM FEW120
     FM230200 35016G24KT P6SM SCT250
     FM231200 35010KT P6SM SCT250
     FM232100 15009KT P6SM BKN250=



000
FTUS45 KVEF 222300
TAFLAS
TAF
KLAS 222320Z 2300/2324 22028G38KT P6SM FEW130 SCT200
     FM230300 24016G26KT P6SM SCT250
     FM230800 30012KT P6SM SCT250
     FM231500 36010KT P6SM SCT150
     FM231800 04008KT P6SM SCT250=



000
FTUS45 KVEF 222300
TAFVGT
TAF
KVGT 222320Z 2300/2324 23025G35KT P6SM FEW130 SCT200
     FM230300 26018G28KT P6SM SCT250
     FM230700 31015G25KT P6SM SCT250
     FM231500 34015G25KT P6SM SCT150
     FM231900 36008KT P6SM SCT250=



000
FTUS45 KVEF 222300
TAFEED
TAF
KEED 222320Z 2300/2324 24015G25KT P6SM BKN200
     FM230300 28018G28KT P6SM FEW250
     FM230700 31012G20KT P6SM SCT250
     FM231500 01015G25KT P6SM SCT250=



000
FTUS45 KVEF 222300
TAFDAG
TAF
KDAG 222320Z 2300/2324 27028G38KT P6SM FEW250
     FM230400 26022G32KT P6SM SCT250
     FM230700 27014G24KT P6SM SCT250
     FM231800 32010KT P6SM SCT250=



000
FTUS45 KVEF 222300
TAFBIH
TAF
KBIH 222320Z 2300/2324 28015G25KT P6SM FEW120
     FM230100 35014G24KT P6SM SCT250
     FM231200 35010KT P6SM SCT250
     FM232100 15009KT P6SM BKN250=



000
FTUS45 KVEF 222000 AAA
TAFLAS
TAF AMD
KLAS 222043Z 2221/2318 22028G36KT P6SM FEW130 SCT250
     FM230300 24016G26KT P6SM SCT250
     FM230800 30012KT P6SM SCT250
     FM231500 36010KT P6SM SCT150=



000
FTUS45 KVEF 221700
TAFEED
TAF
KEED 221720Z 2218/2318 21015KT P6SM BKN200
     FM222000 23020G30KT P6SM BKN200
     FM230300 27015G25KT P6SM FEW250
     FM230700 31012G20KT P6SM SCT250
     FM231400 36015G25KT P6SM SCT250=



000
FTUS45 KVEF 221700
TAFVGT
TAF
KVGT 221720Z 2218/2318 20015G25KT P6SM BKN200
     FM222000 22025G35KT P6SM FEW130 SCT250
     FM230300 26015G25KT P6SM SCT250
     FM230700 31015G25KT P6SM SCT250
     FM231500 34015G25KT P6SM SCT150=



000
FTUS45 KVEF 221700
TAFBIH
TAF
KBIH 221720Z 2218/2318 28007KT P6SM SCT100
      TEMPO 2219/2223 25020G30KT
     FM222300 33020G30KT P6SM FEW120
     FM230300 35014G24KT P6SM SCT250
     FM231200 35010KT P6SM SCT250=



000
FTUS45 KVEF 221700
TAFLAS
TAF
KLAS 221720Z 2218/2318 20018G26KT P6SM BKN200
     FM222000 22028G36KT P6SM FEW130 SCT250
     FM230300 24016G26KT P6SM SCT250
     FM230800 30012KT P6SM SCT250
     FM231500 36010KT P6SM SCT150=



000
FTUS45 KVEF 221700
TAFDAG
TAF
KDAG 221720Z 2218/2318 26020G30KT P6SM SCT200
     FM221900 26030G40KT P6SM FEW200
     FM230400 26025G35KT P6SM SCT250
     FM230700 27014G22KT P6SM SCT250=



000
FTUS45 KVEF 221400 AAA
TAFLAS
TAF AMD
KLAS 221435Z 2215/2312 19014KT P6SM BKN200
     FM221600 20018G26KT P6SM BKN200
     FM221900 22028G36KT P6SM FEW130 SCT250
     FM230300 24018G26KT P6SM FEW250
     FM230800 30012KT P6SM SCT250=



000
FTUS45 KVEF 221100
TAFBIH
TAF
KBIH 221129Z 2212/2312 16007KT P6SM SCT120
     FM221900 25020G30KT P6SM SCT120
     FM222200 33020G30KT P6SM FEW120
     FM230200 35017G25KT P6SM SCT250
     FM231000 34010KT P6SM SCT250=



000
FTUS45 KVEF 221100
TAFVGT
TAF
KVGT 221129Z 2212/2312 21008KT P6SM BKN200
     FM221600 19015G25KT P6SM BKN200
     FM221900 22025G35KT P6SM FEW130 SCT250
     FM230300 25015G25KT P6SM FEW250
     FM230700 31015G25KT P6SM SCT250=



000
FTUS45 KVEF 221100
TAFEED
TAF
KEED 221129Z 2212/2312 24010KT P6SM BKN250
     FM221700 24015G25KT P6SM BKN250
     FM222000 23020G30KT P6SM BKN250
     FM230300 27017G25KT P6SM FEW250
     FM230800 31015KT P6SM SCT250=



000
FTUS45 KVEF 221100
TAFLAS
TAF
KLAS 221129Z 2212/2312 19014KT P6SM BKN200
     FM221600 20018G26KT P6SM BKN200
     FM221900 22028G36KT P6SM FEW130 SCT250
     FM230300 24018G26KT P6SM FEW250
     FM230800 30012KT P6SM SCT250=



000
FTUS45 KVEF 221100
TAFDAG
TAF
KDAG 221129Z 2212/2312 27017KT P6SM BKN200
     FM221600 26020G30KT P6SM BKN200
     FM221900 26032G40KT P6SM FEW250
     FM230300 26025G35KT P6SM SCT250
     FM230800 27014G22KT P6SM SCT250=



000
FTUS45 KVEF 220800 AAA
TAFLAS
TAF AMD
KLAS 220846Z 2209/2306 19012KT P6SM BKN200
     FM221600 20016G26KT P6SM BKN200
     FM221900 22028G36KT P6SM FEW120 SCT250
     FM230300 24018G26KT P6SM SCT250=



000
FTUS45 KVEF 220500
TAFDAG
TAF
KDAG 220534Z 2206/2306 26015KT P6SM BKN200
     FM221600 26018G28KT P6SM BKN200
     FM221900 26032G40KT P6SM FEW120 SCT250
     FM230300 26025G35KT P6SM SCT250=



000
FTUS45 KVEF 220500
TAFBIH
TAF
KBIH 220534Z 2206/2306 31006KT P6SM BKN150
     FM221400 16008KT P6SM BKN150
     FM221900 25020G30KT P6SM SCT120
     FM222200 33020G30KT P6SM FEW120
     FM230200 35017G25KT P6SM FEW120=



000
FTUS45 KVEF 220500
TAFVGT
TAF
KVGT 220534Z 2206/2306 20008KT P6SM BKN200
     FM221600 19015G25KT P6SM BKN200
     FM221900 22025G35KT P6SM FEW120 SCT250
     FM230300 25015G25KT P6SM SCT250=



000
FTUS45 KVEF 220500
TAFEED
TAF
KEED 220534Z 2206/2306 23010KT P6SM BKN250
     FM221700 21015G25KT P6SM BKN250
     FM222000 23020G30KT P6SM BKN250
     FM230300 27017G25KT P6SM SCT250=



000
FTUS45 KVEF 220500
TAFLAS
TAF
KLAS 220534Z 2206/2306 19011KT P6SM BKN200
     FM221600 20016G26KT P6SM BKN200
     FM221900 22028G36KT P6SM FEW120 SCT250
     FM230300 24018G26KT P6SM SCT250=



000
FTUS45 KVEF 220300 AAB
TAFBIH
TAF AMD
KBIH 220305Z 2203/2224 20012G18KT P6SM BKN150
     FM220600 16011KT P6SM BKN150
     FM221700 25020G30KT P6SM SCT120
     FM222100 33020G30KT P6SM FEW120=



000
FTUS45 KVEF 220300 AAA
TAFVGT
TAF AMD
KVGT 220300Z 2203/2224 21007KT P6SM BKN200
     FM221600 19015G25KT P6SM BKN200
     FM221900 22025G35KT P6SM FEW120 SCT250=



000
FTUS45 KVEF 220200 AAA
TAFLAS
TAF AMD
KLAS 220250Z 2203/2224 20011KT P6SM BKN200
     FM221600 20016G26KT P6SM BKN200
     FM221900 22025G35KT P6SM FEW120 SCT250=



000
FTUS45 KVEF 220100 AAA
TAFBIH
TAF AMD
KBIH 220105Z 2201/2224 25015G25KT P6SM BKN150
     FM220400 15011KT P6SM BKN150
     FM221700 25020G30KT P6SM SCT120
     FM222100 33020G30KT P6SM FEW120=



000
FTUS45 KVEF 212300
TAFLAS
TAF
KLAS 212320Z 2200/2224 19014G24KT P6SM FEW120 SCT250
     FM220300 20011KT P6SM BKN200
     FM221600 20016G26KT P6SM BKN200
     FM221900 22025G35KT P6SM FEW120 SCT250=



000
FTUS45 KVEF 212300
TAFDAG
TAF
KDAG 212320Z 2200/2224 23015G25KT P6SM SCT250
     FM220400 26012G20KT P6SM BKN200
     FM221600 26018G28KT P6SM BKN200
     FM221900 26028G40KT P6SM FEW120 SCT250=



000
FTUS45 KVEF 212300
TAFBIH
TAF
KBIH 212320Z 2200/2224 17015G25KT P6SM BKN150
     FM220300 15011KT P6SM BKN150
     FM221700 25020G30KT P6SM SCT120
     FM222100 33020G30KT P6SM FEW120=



000
FTUS45 KVEF 212300
TAFEED
TAF
KEED 212320Z 2200/2224 20012G20KT P6SM FEW250
     FM220300 22010KT P6SM BKN250
     FM221700 21015G25KT P6SM BKN250
     FM222000 23020G30KT P6SM BKN250=



000
FTUS45 KVEF 212300
TAFVGT
TAF
KVGT 212320Z 2200/2224 19012G22KT P6SM FEW120 SCT250
     FM220300 19010KT P6SM BKN200
     FM221600 19015G25KT P6SM BKN200
     FM221900 22025G35KT P6SM FEW120 SCT250=



000
FTUS45 KVEF 212000 AAA
TAFLAS
TAF AMD
KLAS 212045Z 2121/2218 19013G22KT P6SM FEW120 SCT250
     FM220300 20011KT P6SM BKN200
     FM221700 20020G30KT P6SM BKN200=



000
FTUS45 KVEF 211700
TAFEED
TAF
KEED 211720Z 2118/2218 VRB05KT P6SM SKC
     FM212000 19012G20KT P6SM FEW250
     FM220300 22010KT P6SM BKN250
     FM221700 21016G26KT P6SM BKN250=



000
FTUS45 KVEF 211700
TAFDAG
TAF
KDAG 211720Z 2118/2218 30008KT P6SM FEW250
     FM212300 24015G25KT P6SM SCT250
     FM220400 26012G20KT P6SM BKN200
     FM221600 26020G30KT P6SM BKN200=



000
FTUS45 KVEF 211700
TAFLAS
TAF
KLAS 211720Z 2118/2218 06006KT P6SM FEW250
     FM212100 19013G22KT P6SM SCT250
     FM220300 20011KT P6SM BKN200
     FM221700 20020G30KT P6SM BKN200=



000
FTUS45 KVEF 211700
TAFBIH
TAF
KBIH 211720Z 2118/2218 VRB05KT P6SM BKN200
     FM212000 17017G27KT P6SM BKN150
     FM220400 15011KT P6SM BKN150
     FM221700 25020G30KT P6SM SCT150=



000
FTUS45 KVEF 211700
TAFVGT
TAF
KVGT 211720Z 2118/2218 12007KT P6SM FEW250
     FM212100 19012G22KT P6SM SCT250
     FM220300 20010KT P6SM BKN200
     FM221700 20020G30KT P6SM BKN200=



000
FTUS45 KVEF 211400 AAA
TAFLAS
TAF AMD
KLAS 211433Z 2115/2212 16006KT P6SM FEW250
     FM212000 20013G22KT P6SM SCT250
     FM220300 20012KT P6SM BKN250=



000
FTUS45 KVEF 211100
TAFEED
TAF
KEED 211125Z 2112/2212 VRB05KT P6SM SKC
     FM212000 19012G20KT P6SM FEW250
     FM220300 22010KT P6SM BKN250=



000
FTUS45 KVEF 211100
TAFVGT
TAF
KVGT 211125Z 2112/2212 31006KT P6SM SKC
     FM211600 15007KT P6SM FEW250
     FM212100 19012G22KT P6SM SCT250
     FM220300 21010KT P6SM BKN250=



000
FTUS45 KVEF 211100
TAFBIH
TAF
KBIH 211125Z 2112/2212 33006KT P6SM SKC
     FM211500 VRB05KT P6SM SCT250
     FM212000 17017G27KT P6SM BKN250
     FM220400 15013KT P6SM SCT150 BKN250=



000
FTUS45 KVEF 211100
TAFDAG
TAF
KDAG 211125Z 2112/2212 26010KT P6SM SKC
     FM211800 32008KT P6SM FEW250
     FM220100 25017G25KT P6SM BKN250=



000
FTUS45 KVEF 211100
TAFLAS
TAF
KLAS 211125Z 2112/2212 VRB05KT P6SM SKC
     FM211600 16006KT P6SM FEW250
     FM212000 20013G22KT P6SM SCT250
     FM220300 20012KT P6SM BKN250=



000
FTUS45 KVEF 210800 AAA
TAFLAS
TAF AMD
KLAS 210852Z 2109/2206 19009KT P6SM SKC
     FM211500 VRB05KT P6SM SKC
     FM211800 16006KT P6SM SCT250
     FM212000 20013G23KT P6SM SCT250
     FM220300 20010KT P6SM BKN250=



    US Dept of Commerce
    National Oceanic and Atmospheric Administration
    National Weather Service
    1325 East West Highway
    Silver Spring, MD 20910
    Page Author: NWS Internet Services Team
Disclaimer
Information Quality
Credits
Glossary
Privacy Policy
Freedom of Information Act (FOIA)
About Us
Career Opportunities